Time;durP1;ratioP1;P1;durP2;ratioP2;P2;SDS_P1;SDS_P2;PMS_P1;PMS_P2;Temp;Humidity;BMP_temperature;BMP_pressure;BME280_temperature;BME280_humidity;BME280_pressure;Samples;Min_cycle;Max_cycle;Signal;HPM_P1;HPM_P2
2021/05/29 00:02:23;;;;;;;2.50;1.80;;;;;;;11.06;80.88;99034.22;5056048;28;20097;-63
2021/05/29 00:04:48;;;;;;;4.82;1.98;;;;;;;10.97;81.56;99037.00;5056252;28;20020;-63
2021/05/29 00:07:14;;;;;;;3.97;2.22;;;;;;;10.94;81.74;99042.31;5059124;28;20070;-63
2021/05/29 00:09:40;;;;;;;4.10;2.33;;;;;;;10.81;82.31;99030.22;5058845;28;20009;-63
2021/05/29 00:12:08;;;;;;;4.95;2.30;;;;;;;10.81;82.20;99030.22;5058006;28;20017;-63
2021/05/29 00:14:35;;;;;;;4.78;2.00;;;;;;;10.82;81.88;99031.94;5058819;28;20079;-63
2021/05/29 00:17:00;;;;;;;5.28;2.20;;;;;;;10.88;81.77;99032.72;5058064;28;20088;-63
2021/05/29 00:19:26;;;;;;;6.03;2.10;;;;;;;10.81;82.58;99027.56;5058842;28;20032;-63
2021/05/29 00:21:51;;;;;;;2.35;2.03;;;;;;;10.75;82.94;99035.56;5057821;28;20386;-63
2021/05/29 00:24:17;;;;;;;2.78;1.92;;;;;;;10.72;83.10;99031.22;5059111;28;20216;-63
2021/05/29 00:26:42;;;;;;;2.63;1.90;;;;;;;10.75;82.81;99035.56;5048497;28;20033;-63
2021/05/29 00:29:07;;;;;;;3.20;2.03;;;;;;;10.76;83.15;99021.53;5047309;28;20014;-63
2021/05/29 00:31:33;;;;;;;4.63;2.25;;;;;;;10.75;82.76;99014.50;5049543;28;20024;-63
2021/05/29 00:33:58;;;;;;;3.60;1.80;;;;;;;10.82;82.29;99021.41;5054023;28;20257;-63
2021/05/29 00:36:24;;;;;;;5.28;1.90;;;;;;;10.72;81.57;99020.69;5055743;28;20095;-63
2021/05/29 00:38:50;;;;;;;4.55;1.85;;;;;;;10.80;81.46;99015.31;5061211;28;20094;-63
2021/05/29 00:41:17;;;;;;;4.35;2.42;;;;;;;10.65;81.87;99018.16;5061798;28;20028;-63
2021/05/29 00:43:43;;;;;;;3.33;2.17;;;;;;;10.58;82.55;99022.63;5051274;28;20099;-63
2021/05/29 00:46:09;;;;;;;2.97;2.20;;;;;;;10.63;82.76;99009.38;5052341;28;20024;-63
2021/05/29 00:48:35;;;;;;;2.72;2.03;;;;;;;10.69;82.33;99010.19;5051210;28;20026;-63
2021/05/29 00:51:01;;;;;;;4.25;2.10;;;;;;;10.68;82.56;99008.47;5052271;28;20021;-63
2021/05/29 00:53:31;;;;;;;3.30;2.13;;;;;;;10.69;82.17;99004.03;5051242;28;20055;-63
2021/05/29 00:55:58;;;;;;;3.95;2.20;;;;;;;10.58;83.12;99000.69;5051436;28;20025;-63
2021/05/29 00:58:25;;;;;;;3.30;2.03;;;;;;;10.57;83.27;99006.88;5050934;28;20030;-63
2021/05/29 01:00:51;;;;;;;2.55;1.98;;;;;;;10.55;82.94;98995.47;5051800;28;20030;-63
2021/05/29 01:03:17;;;;;;;3.13;2.10;;;;;;;10.52;83.13;98995.50;5051398;28;20080;-63
2021/05/29 01:05:44;;;;;;;3.75;2.17;;;;;;;10.51;83.08;98996.41;5051603;28;20028;-63
2021/05/29 01:08:10;;;;;;;3.47;1.85;;;;;;;10.47;83.44;98992.06;5058348;28;20021;-63
2021/05/29 01:10:36;;;;;;;3.25;2.20;;;;;;;10.40;82.94;98995.66;5061552;28;20020;-63
2021/05/29 01:13:04;;;;;;;4.97;2.20;;;;;;;10.34;83.71;98996.63;5054571;28;20029;-63
2021/05/29 01:15:38;;;;;;;10.90;1.98;;;;;;;10.35;83.67;99000.13;5051850;28;20228;-63
2021/05/29 01:18:06;;;;;;;1.92;1.55;;;;;;;10.24;83.19;99000.25;5060779;28;20017;-63
2021/05/29 01:20:31;;;;;;;2.97;1.83;;;;;;;10.22;83.54;99003.81;5061835;28;20037;-63
2021/05/29 01:22:58;;;;;;;3.50;2.28;;;;;;;10.04;83.04;99006.63;5059557;28;20021;-63
2021/05/29 01:25:30;;;;;;;2.50;2.05;;;;;;;10.01;83.67;99017.16;5051641;28;20256;-63
2021/05/29 01:28:05;;;;;;;4.05;2.50;;;;;;;9.98;84.27;99009.31;5051004;28;20098;-63
2021/05/29 01:30:36;;;;;;;4.07;1.85;;;;;;;9.93;83.55;99008.47;5051899;28;20040;-63
2021/05/29 01:33:02;;;;;;;6.32;2.17;;;;;;;9.86;84.17;99022.56;5059146;28;20056;-63
2021/05/29 01:35:30;;;;;;;3.22;1.80;;;;;;;9.76;84.00;99010.41;5061741;28;20021;-63
2021/05/29 01:37:56;;;;;;;2.47;1.83;;;;;;;9.75;83.99;99003.44;5060671;28;20321;-63
2021/05/29 01:40:21;;;;;;;2.08;1.83;;;;;;;9.77;83.93;99015.66;5055476;28;20021;-63
2021/05/29 01:42:48;;;;;;;2.17;1.75;;;;;;;9.76;83.34;99020.94;5051761;28;20071;-63
2021/05/29 01:45:14;;;;;;;4.57;2.17;;;;;;;9.60;83.53;99009.72;5057993;28;20041;-63
2021/05/29 01:47:43;;;;;;;9.25;2.20;;;;;;;9.57;83.33;99014.13;5059257;28;20028;-63
2021/05/29 01:50:11;;;;;;;4.30;1.90;;;;;;;9.52;83.62;99019.41;5058524;28;20032;-63
2021/05/29 01:52:54;;;;;;;3.10;2.00;;;;;;;9.24;83.44;99017.91;5058758;28;20017;-63
2021/05/29 01:55:24;;;;;;;3.80;1.80;;;;;;;9.32;83.99;99020.47;5058748;28;20079;-63
2021/05/29 01:57:51;;;;;;;3.30;2.20;;;;;;;9.25;83.86;99021.41;5052461;28;20335;-63
2021/05/29 02:00:18;;;;;;;5.30;1.90;;;;;;;9.08;83.72;99023.28;5050074;28;20235;-63
2021/05/29 02:02:43;;;;;;;2.72;1.80;;;;;;;9.10;84.55;99026.75;5060518;28;20368;-63
2021/05/29 02:05:20;;;;;;;2.88;2.08;;;;;;;9.06;83.85;99025.06;5060017;28;20028;-63
2021/05/29 02:07:46;;;;;;;5.50;2.13;;;;;;;9.07;84.14;99021.53;5050215;28;20017;-63
2021/05/29 02:10:19;;;;;;;2.47;1.88;;;;;;;9.09;83.71;99014.53;5050441;28;20334;-63
2021/05/29 02:12:47;;;;;;;2.13;1.88;;;;;;;9.09;84.31;99025.03;5050822;28;20029;-63
2021/05/29 02:15:16;;;;;;;3.55;1.88;;;;;;;8.88;84.13;99025.16;5049573;28;20340;-63
2021/05/29 02:17:44;;;;;;;2.55;1.85;;;;;;;8.87;83.98;99023.44;5050633;28;20032;-63
2021/05/29 02:20:10;;;;;;;2.45;1.75;;;;;;;8.82;83.99;99021.72;5049425;28;20028;-63
2021/05/29 02:22:37;;;;;;;3.00;1.83;;;;;;;8.73;83.65;99027.00;5059795;28;20048;-63
2021/05/29 02:25:04;;;;;;;2.95;2.00;;;;;;;8.67;84.14;99029.66;5061099;28;20050;-63
2021/05/29 02:27:30;;;;;;;3.80;1.98;;;;;;;8.71;84.16;99028.75;5060800;28;20021;-63
2021/05/29 02:29:55;;;;;;;3.05;2.00;;;;;;;8.55;85.35;99021.84;5059422;28;20051;-63
2021/05/29 02:32:20;;;;;;;3.15;1.95;;;;;;;8.66;85.65;99030.56;5060303;28;20021;-63
2021/05/29 02:34:46;;;;;;;4.07;2.00;;;;;;;8.66;84.16;99024.44;5059948;28;20020;-63
2021/05/29 02:37:11;;;;;;;2.78;2.10;;;;;;;8.61;84.41;99027.06;5058045;28;20028;-63
2021/05/29 02:39:37;;;;;;;1.80;1.48;;;;;;;8.61;84.86;99020.97;5057685;28;20028;-63
2021/05/29 02:42:03;;;;;;;4.95;2.05;;;;;;;8.66;83.91;99030.56;5058961;28;20060;-63
2021/05/29 02:44:28;;;;;;;3.67;2.00;;;;;;;8.65;83.68;99041.94;5057457;28;20224;-63
2021/05/29 02:46:54;;;;;;;2.75;2.08;;;;;;;8.56;84.19;99033.22;5059092;28;20056;-63
2021/05/29 02:49:19;;;;;;;6.68;1.75;;;;;;;8.58;84.87;99032.34;5058842;28;20014;-63
2021/05/29 02:51:45;;;;;;;5.43;2.30;;;;;;;8.53;84.34;99039.38;5058216;28;20023;-63
2021/05/29 02:54:10;;;;;;;2.60;1.63;;;;;;;8.49;85.16;99029.75;5059954;28;20025;-62
2021/05/29 02:56:35;;;;;;;3.08;1.90;;;;;;;8.57;83.56;99041.09;5059362;28;20308;-62
2021/05/29 02:59:01;;;;;;;2.47;1.90;;;;;;;8.43;83.28;99047.28;5055380;28;20052;-62
2021/05/29 03:01:27;;;;;;;2.83;1.58;;;;;;;8.35;83.69;99041.19;5049281;28;20017;-62
2021/05/29 03:03:52;;;;;;;4.55;1.92;;;;;;;8.42;84.10;99043.78;5049972;28;20024;-62
2021/05/29 03:06:17;;;;;;;2.22;1.73;;;;;;;8.40;83.70;99042.06;5050754;28;20024;-62
2021/05/29 03:08:43;;;;;;;2.25;1.98;;;;;;;8.29;83.59;99044.72;5048675;28;20017;-62
2021/05/29 03:11:10;;;;;;;2.60;1.90;;;;;;;8.18;85.00;99041.25;5049297;28;20029;-62
2021/05/29 03:13:36;;;;;;;4.25;1.85;;;;;;;8.22;85.24;99043.00;5048487;28;20052;-62
2021/05/29 03:16:01;;;;;;;5.40;2.15;;;;;;;8.20;85.03;99047.34;5048529;28;20033;-62
2021/05/29 03:18:28;;;;;;;2.08;1.65;;;;;;;8.06;85.34;99043.91;5049351;28;20247;-62
2021/05/29 03:20:53;;;;;;;11.80;2.55;;;;;;;8.00;86.07;99046.53;5048401;28;20090;-62
2021/05/29 03:23:19;;;;;;;4.72;1.70;;;;;;;8.06;86.37;99046.53;5049383;28;20033;-62
2021/05/29 03:25:44;;;;;;;2.50;2.00;;;;;;;8.06;85.38;99049.13;5050345;28;20095;-62
2021/05/29 03:28:09;;;;;;;2.72;2.00;;;;;;;8.03;85.78;99049.16;5053396;28;20055;-62
2021/05/29 03:30:36;;;;;;;4.53;1.70;;;;;;;8.02;85.18;99052.66;5056142;28;20324;-62
2021/05/29 03:33:02;;;;;;;1.60;1.50;;;;;;;8.11;84.71;99055.25;5057058;28;20029;-62
2021/05/29 03:35:28;;;;;;;4.63;1.90;;;;;;;8.00;85.44;99057.00;5056371;28;20071;-62
2021/05/29 03:37:54;;;;;;;3.22;2.15;;;;;;;7.97;85.31;99062.25;5049705;28;20021;-62
2021/05/29 03:40:21;;;;;;;2.40;2.00;;;;;;;8.03;85.88;99056.13;5049903;28;20110;-62
2021/05/29 03:42:46;;;;;;;3.92;2.20;;;;;;;7.98;84.43;99064.00;5049138;28;20025;-62
2021/05/29 03:45:14;;;;;;;4.45;2.17;;;;;;;7.95;84.25;99063.16;5048998;28;20028;-62
2021/05/29 03:47:43;;;;;;;2.75;2.05;;;;;;;8.00;85.12;99067.50;5047831;28;20092;-62
2021/05/29 03:50:11;;;;;;;2.40;1.83;;;;;;;8.07;85.07;99074.47;5048976;28;20072;-62
2021/05/29 03:52:36;;;;;;;9.05;2.30;;;;;;;8.01;85.47;99073.63;5048536;28;20021;-62
2021/05/29 03:55:03;;;;;;;3.13;2.22;;;;;;;8.03;84.69;99072.75;5048110;28;20063;-62
2021/05/29 03:57:29;;;;;;;4.32;2.05;;;;;;;8.05;85.18;99065.75;5048265;28;20025;-62
2021/05/29 03:59:54;;;;;;;3.85;1.80;;;;;;;8.09;84.45;99072.72;5047240;28;20336;-62
2021/05/29 04:02:20;;;;;;;2.58;1.85;;;;;;;8.04;83.95;99071.84;5047579;28;20013;-62
2021/05/29 04:04:45;;;;;;;4.57;1.90;;;;;;;7.91;85.01;99083.25;5050201;28;20077;-62
2021/05/29 04:07:11;;;;;;;3.38;2.03;;;;;;;8.04;84.43;99079.72;5048761;28;20017;-62
2021/05/29 04:09:36;;;;;;;4.68;2.38;;;;;;;7.97;85.23;99079.72;5048092;28;20018;-62
2021/05/29 04:12:02;;;;;;;2.22;1.80;;;;;;;8.10;85.05;99084.94;5047949;28;20051;-62
2021/05/29 04:14:27;;;;;;;3.58;2.00;;;;;;;8.03;85.36;99082.34;5053590;28;20100;-62
2021/05/29 04:16:52;;;;;;;3.92;2.15;;;;;;;7.98;84.79;99078.88;5055940;28;20027;-62
2021/05/29 04:19:18;;;;;;;3.13;1.95;;;;;;;7.99;84.57;99081.50;5055855;28;20044;-62
2021/05/29 04:21:43;;;;;;;6.57;2.55;;;;;;;7.91;84.88;99088.47;5056454;28;20096;-62
2021/05/29 04:24:09;;;;;;;3.95;2.72;;;;;;;7.94;85.10;99093.72;5052711;28;20081;-62
2021/05/29 04:26:36;;;;;;;4.18;2.67;;;;;;;8.03;85.51;99083.22;5049502;28;20051;-62
2021/05/29 04:29:01;;;;;;;5.65;2.40;;;;;;;8.00;84.91;99088.47;5047335;28;20067;-62
2021/05/29 04:31:27;;;;;;;5.72;2.22;;;;;;;8.00;84.71;99088.47;5048716;28;20021;-62
2021/05/29 04:33:52;;;;;;;4.90;2.47;;;;;;;8.37;83.71;99095.41;5048129;28;20024;-62
2021/05/29 04:36:17;;;;;;;4.22;2.47;;;;;;;9.56;80.32;99096.47;5047289;28;20028;-62
2021/05/29 04:38:43;;;;;;;5.18;2.40;;;;;;;10.27;75.69;99100.19;5048258;28;20022;-63
2021/05/29 04:41:08;;;;;;;7.00;1.90;;;;;;;10.86;73.95;99091.59;5047280;28;20021;-63
2021/05/29 04:43:34;;;;;;;4.70;1.60;;;;;;;11.33;72.10;99094.41;5047339;28;20021;-63
2021/05/29 04:45:59;;;;;;;1.50;1.30;;;;;;;11.65;69.80;99092.19;5049292;28;20328;-63
2021/05/29 04:48:25;;;;;;;1.55;1.25;;;;;;;12.44;67.20;99092.47;5049514;28;20279;-63
2021/05/29 04:53:35;;;;;;;3.38;1.48;;;;;;;13.63;64.25;99102.22;5056073;28;20020;-63
2021/05/29 04:56:01;;;;;;;3.35;1.50;;;;;;;14.13;61.67;99093.88;5049395;28;20208;-63
2021/05/29 04:58:27;;;;;;;2.83;1.58;;;;;;;14.66;59.51;99090.69;5047439;28;20017;-63
2021/05/29 05:00:53;;;;;;;1.73;1.45;;;;;;;14.98;59.51;99101.22;5047858;28;20021;-63
2021/05/29 05:03:19;;;;;;;2.47;2.25;;;;;;;14.71;60.14;99089.66;5046995;28;20017;-63
2021/05/29 05:05:44;;;;;;;2.33;1.60;;;;;;;15.40;57.41;99097.31;5047152;28;20021;-63
2021/05/29 05:08:11;;;;;;;3.72;1.60;;;;;;;15.95;57.23;99085.78;5046750;28;20024;-63
2021/05/29 05:10:36;;;;;;;2.60;1.63;;;;;;;16.36;55.71;99094.03;5046079;28;20359;-63
2021/05/29 05:13:02;;;;;;;2.55;1.38;;;;;;;16.29;55.66;99091.66;5056185;28;20028;-63
2021/05/29 05:15:27;;;;;;;2.15;1.92;;;;;;;16.80;54.82;99096.00;5056095;28;20029;-63
2021/05/29 05:17:54;;;;;;;1.77;1.20;;;;;;;16.71;53.88;99099.00;5057941;28;20056;-63
2021/05/29 05:20:19;;;;;;;2.28;1.63;;;;;;;16.92;54.63;99102.66;5057302;28;20028;-63
2021/05/29 05:22:45;;;;;;;2.47;1.73;;;;;;;16.66;54.04;99100.97;5055994;28;20021;-63
2021/05/29 05:25:13;;;;;;;2.42;1.42;;;;;;;17.02;54.71;99099.59;5061436;28;20227;-63
2021/05/29 05:27:39;;;;;;;4.50;1.50;;;;;;;17.49;53.78;99102.28;5060354;28;20070;-63
2021/05/29 05:30:06;;;;;;;3.17;1.55;;;;;;;17.88;53.67;99101.50;5060705;28;20017;-63
2021/05/29 05:32:33;;;;;;;7.25;1.30;;;;;;;18.25;49.77;99103.50;5050878;28;20020;-63
2021/05/29 05:34:58;;;;;;;2.20;1.60;;;;;;;18.63;48.94;99097.41;5057617;28;20024;-63
2021/05/29 05:37:24;;;;;;;4.45;1.52;;;;;;;18.78;47.36;99110.06;5057897;28;20216;-63
2021/05/29 05:39:49;;;;;;;2.00;1.30;;;;;;;18.39;47.77;99109.16;5059366;28;20067;-63
2021/05/29 05:42:14;;;;;;;3.20;1.48;;;;;;;18.68;47.78;99114.94;5060154;28;20025;-63
2021/05/29 05:44:40;;;;;;;2.55;1.30;;;;;;;19.31;46.88;99119.19;5060304;28;20022;-63
2021/05/29 05:47:05;;;;;;;3.75;1.42;;;;;;;19.08;46.84;99112.22;5060509;28;20201;-63
2021/05/29 05:49:31;;;;;;;3.63;1.42;;;;;;;19.19;47.55;99109.06;5059403;28;20390;-63
2021/05/29 05:51:56;;;;;;;3.10;1.40;;;;;;;19.83;45.74;99102.41;5049137;28;20072;-63
2021/05/29 05:54:22;;;;;;;6.00;1.60;;;;;;;19.61;44.87;99112.41;5051338;28;20021;-63
2021/05/29 05:56:47;;;;;;;1.80;1.30;;;;;;;20.01;45.94;99111.31;5051907;28;20313;-64
2021/05/29 05:59:12;;;;;;;2.08;1.40;;;;;;;20.38;44.56;99105.88;5052131;28;20021;-64
2021/05/29 06:01:41;;;;;;;1.95;1.20;;;;;;;19.92;44.76;99117.97;5051015;28;20088;-63
2021/05/29 06:04:06;;;;;;;4.75;1.48;;;;;;;20.55;42.65;99125.47;5052124;28;20336;-63
2021/05/29 06:06:32;;;;;;;3.83;1.63;;;;;;;19.86;43.73;99123.63;5052586;28;20021;-63
2021/05/29 06:08:57;;;;;;;3.78;1.35;;;;;;;20.45;42.44;99124.22;5059791;28;20017;-63
2021/05/29 06:11:23;;;;;;;3.47;1.60;;;;;;;20.56;42.04;99124.53;5066136;28;20091;-63
2021/05/29 06:21:49;;;;;;;2.22;1.30;;;;;;;21.27;41.00;99132.28;5065991;28;20052;-63
2021/05/29 06:24:19;;;;;;;2.22;1.25;;;;;;;21.21;39.92;99134.44;5066146;28;20028;-63
2021/05/29 06:26:45;;;;;;;2.80;1.30;;;;;;;21.41;38.10;99139.56;5065729;28;20093;-63
2021/05/29 06:29:11;;;;;;;2.30;1.17;;;;;;;21.43;38.93;99135.00;5065831;28;20024;-63
2021/05/29 06:31:36;;;;;;;1.35;1.02;;;;;;;20.53;40.04;99132.69;5065820;28;20020;-63
2021/05/29 06:34:03;;;;;;;3.17;1.30;;;;;;;21.25;39.66;99144.91;5065738;28;20032;-63
2021/05/29 06:36:29;;;;;;;1.20;1.10;;;;;;;22.21;39.06;99135.03;5065706;28;20029;-63
2021/05/29 06:38:55;;;;;;;2.65;1.20;;;;;;;22.20;36.41;99136.84;5065589;28;20272;-63
2021/05/29 06:41:20;;;;;;;1.88;1.00;;;;;;;21.59;38.16;99145.72;5065557;28;20029;-63
2021/05/29 06:43:46;;;;;;;3.60;1.20;;;;;;;21.44;37.33;99149.25;5065556;28;20369;-63
2021/05/29 06:46:11;;;;;;;1.13;0.95;;;;;;;21.21;37.69;99156.75;5065565;28;20032;-63
2021/05/29 06:48:37;;;;;;;2.00;1.00;;;;;;;20.97;37.92;99160.72;5065500;28;20052;-63
2021/05/29 06:51:02;;;;;;;2.63;1.20;;;;;;;20.68;38.67;99145.28;5065391;28;20025;-63
2021/05/29 06:53:47;;;;;;;1.70;1.20;;;;;;;21.12;38.11;99148.31;5064039;28;20035;-63
2021/05/29 06:58:56;;;;;;;1.48;1.10;;;;;;;21.85;35.89;99150.53;5065233;28;20096;-63
2021/05/29 07:01:24;;;;;;;1.65;0.95;;;;;;;21.80;37.03;99157.97;5065227;28;20033;-63
2021/05/29 07:03:50;;;;;;;5.13;1.20;;;;;;;22.22;35.65;99160.88;5065069;28;20255;-63
2021/05/29 07:06:16;;;;;;;4.13;1.25;;;;;;;21.08;37.66;99163.69;5065104;28;20025;-63
2021/05/29 07:08:42;;;;;;;2.70;1.52;;;;;;;21.36;37.96;99157.72;5065076;28;20080;-63
2021/05/29 07:11:08;;;;;;;2.92;1.30;;;;;;;21.18;37.19;99151.56;5065277;28;20029;-63
2021/05/29 07:13:33;;;;;;;2.00;1.10;;;;;;;20.78;37.92;99159.91;5065004;28;20025;-63
2021/05/29 07:16:00;;;;;;;4.63;1.02;;;;;;;22.17;36.01;99152.22;5064919;28;20029;-63
2021/05/29 07:18:30;;;;;;;2.40;1.20;;;;;;;22.40;35.16;99165.19;5065065;28;20028;-63
2021/05/29 07:20:56;;;;;;;5.22;1.13;;;;;;;22.51;33.98;99152.91;5065005;28;20029;-63
2021/05/29 07:23:22;;;;;;;3.53;1.08;;;;;;;22.91;34.25;99160.28;5064787;28;20048;-63
2021/05/29 07:25:47;;;;;;;3.63;1.20;;;;;;;22.92;34.99;99153.09;5064523;28;20048;-63
2021/05/29 07:28:12;;;;;;;1.63;1.00;;;;;;;22.24;34.76;99148.25;5064683;28;20267;-63
2021/05/29 07:30:38;;;;;;;2.40;0.95;;;;;;;21.98;35.56;99157.78;5064898;28;20032;-63
2021/05/29 07:33:05;;;;;;;3.58;1.17;;;;;;;22.90;34.96;99155.00;5064840;28;20048;-63
2021/05/29 07:35:31;;;;;;;1.13;1.00;;;;;;;22.47;34.19;99171.91;5064596;28;20304;-63
2021/05/29 07:37:56;;;;;;;4.18;1.38;;;;;;;23.02;34.04;99160.50;5064524;28;20024;-63
2021/05/29 07:40:23;;;;;;;2.38;1.23;;;;;;;22.75;33.93;99161.31;5064422;28;20025;-63
2021/05/29 07:42:48;;;;;;;1.38;0.95;;;;;;;22.45;33.98;99152.34;5064438;28;20336;-63
2021/05/29 07:45:15;;;;;;;2.70;1.30;;;;;;;22.49;34.69;99153.91;5064296;28;20027;-63
2021/05/29 07:47:40;;;;;;;1.95;0.98;;;;;;;23.16;35.85;99156.97;5063966;28;20035;-63
2021/05/29 07:50:08;;;;;;;2.72;1.00;;;;;;;23.24;34.08;99149.31;5064310;28;20021;-63
2021/05/29 07:52:34;;;;;;;1.33;1.20;;;;;;;24.28;33.81;99147.91;5064531;28;20239;-63
2021/05/29 07:54:59;;;;;;;2.17;1.08;;;;;;;23.17;32.97;99142.56;5064522;28;20067;-63
2021/05/29 07:57:25;;;;;;;2.58;1.00;;;;;;;23.10;33.47;99147.44;5064445;28;20040;-63
2021/05/29 07:59:51;;;;;;;1.73;1.10;;;;;;;23.25;31.34;99157.28;5064088;28;20028;-63
2021/05/29 08:02:16;;;;;;;2.47;1.10;;;;;;;24.19;33.33;99140.47;5064092;28;20216;-63
2021/05/29 08:04:41;;;;;;;2.03;1.05;;;;;;;24.18;30.99;99145.00;5054610;28;20029;-63
2021/05/29 08:07:07;;;;;;;4.60;1.20;;;;;;;23.83;30.55;99159.84;5064070;28;20036;-63
2021/05/29 08:09:32;;;;;;;2.22;1.08;;;;;;;23.87;30.10;99149.75;5064002;28;20313;-63
2021/05/29 08:11:57;;;;;;;2.97;1.00;;;;;;;23.60;30.21;99147.00;5063995;28;20052;-63
2021/05/29 08:14:23;;;;;;;2.35;1.00;;;;;;;23.73;31.44;99152.47;5063960;28;20024;-63
2021/05/29 08:16:49;;;;;;;3.78;1.10;;;;;;;23.18;31.62;99166.66;5063917;28;20032;-63
2021/05/29 08:19:15;;;;;;;1.50;0.90;;;;;;;23.65;31.96;99155.66;5063835;28;20049;-63
2021/05/29 08:21:51;;;;;;;1.05;0.95;;;;;;;24.41;31.67;99155.09;5063905;28;20047;-63
2021/05/29 08:24:17;;;;;;;1.52;1.02;;;;;;;24.83;32.08;99154.88;5063929;28;20029;-63
2021/05/29 08:26:43;;;;;;;0.90;0.80;;;;;;;25.10;30.95;99153.00;5063765;28;20045;-63
2021/05/29 08:29:14;;;;;;;1.17;0.98;;;;;;;24.91;29.12;99157.94;5063908;28;20036;-63
2021/05/29 08:31:42;;;;;;;1.23;1.03;;;;;;;24.10;30.13;99147.31;5064145;28;20305;-63
2021/05/29 08:34:09;;;;;;;2.03;0.90;;;;;;;24.99;29.23;99158.25;5063821;28;20021;-63
2021/05/29 08:36:34;;;;;;;2.13;1.10;;;;;;;24.51;28.39;99164.25;5063732;28;20084;-63
2021/05/29 08:39:00;;;;;;;0.98;0.90;;;;;;;24.69;28.45;99157.69;5059911;28;20029;-64
2021/05/29 08:41:26;;;;;;;2.53;1.27;;;;;;;24.17;28.25;99155.84;5051668;28;20033;-63
2021/05/29 08:43:51;;;;;;;2.03;1.00;;;;;;;23.74;29.82;99173.88;5043712;28;20372;-63
2021/05/29 08:46:17;;;;;;;4.22;1.00;;;;;;;23.09;30.04;99166.34;5043648;28;20081;-63
2021/05/29 08:48:42;;;;;;;3.40;1.00;;;;;;;23.63;29.23;99156.72;5043646;28;20025;-63
2021/05/29 08:51:15;;;;;;;4.00;1.10;;;;;;;23.27;29.99;99170.63;5043650;28;20021;-63
2021/05/29 08:53:48;;;;;;;2.65;0.90;;;;;;;23.77;29.58;99181.75;5043728;28;20320;-63
2021/05/29 08:56:15;;;;;;;1.55;1.00;;;;;;;22.61;30.82;99158.56;5043905;28;20336;-63
2021/05/29 08:58:41;;;;;;;2.80;1.10;;;;;;;23.13;29.69;99158.00;5045121;28;20031;-63
2021/05/29 09:01:07;;;;;;;0.93;0.88;;;;;;;24.43;29.41;99141.53;5047523;28;20088;-63
2021/05/29 09:03:43;;;;;;;1.65;1.10;;;;;;;25.30;28.45;99149.75;5047395;28;20025;-63
2021/05/29 09:06:10;;;;;;;1.27;0.88;;;;;;;24.37;28.57;99158.94;5048560;28;20028;-65
2021/05/29 09:09:06;;;;;;;1.42;0.90;;;;;;;24.37;28.49;99156.25;5058047;28;20039;-63
2021/05/29 09:11:38;;;;;;;3.47;1.10;;;;;;;25.27;29.35;99155.34;5062964;28;20052;-63
2021/05/29 09:14:27;;;;;;;1.42;0.90;;;;;;;25.42;28.08;99157.94;5066797;28;20021;-63
2021/05/29 09:17:16;;;;;;;3.13;1.33;;;;;;;24.87;29.01;99161.78;5053752;28;20099;-63
2021/05/29 09:19:56;;;;;;;1.65;1.05;;;;;;;25.03;27.29;99159.75;5061720;28;20025;-63
2021/05/29 09:22:30;;;;;;;2.72;0.90;;;;;;;24.35;29.21;99150.09;5047170;28;20056;-63
2021/05/29 09:25:03;;;;;;;4.43;1.00;;;;;;;23.17;30.66;99159.56;5050292;28;20317;-63
2021/05/29 09:27:31;;;;;;;1.27;0.90;;;;;;;22.05;31.58;99158.31;5048350;28;20029;-63
2021/05/29 09:29:57;;;;;;;2.08;1.00;;;;;;;23.41;31.10;99162.56;5047013;28;20103;-63
2021/05/29 09:32:22;;;;;;;1.73;1.08;;;;;;;24.26;31.60;99156.09;5046925;28;20313;-63
2021/05/29 09:34:52;;;;;;;1.30;1.13;;;;;;;24.94;28.02;99168.50;5046901;28;20060;-63
2021/05/29 09:37:26;;;;;;;1.88;0.93;;;;;;;24.09;28.85;99169.81;5046854;28;20104;-63
2021/05/29 09:40:04;;;;;;;1.88;1.00;;;;;;;24.24;29.21;99171.50;5046693;28;20061;-63
2021/05/29 09:42:35;;;;;;;2.42;1.20;;;;;;;24.94;27.78;99178.41;5046755;28;20100;-63
2021/05/29 09:45:21;;;;;;;1.42;0.90;;;;;;;23.81;30.21;99167.13;5047021;28;20075;-63
2021/05/29 09:48:19;;;;;;;3.88;1.17;;;;;;;22.54;31.40;99167.94;5046725;28;20317;-63
2021/05/29 09:51:11;;;;;;;1.55;0.90;;;;;;;24.68;29.71;99165.84;5046558;28;20028;-63
2021/05/29 09:53:45;;;;;;;1.67;0.80;;;;;;;25.13;29.20;99174.31;5045906;28;20047;-63
2021/05/29 09:56:27;;;;;;;2.38;0.90;;;;;;;24.49;28.38;99163.50;5046616;28;20198;-63
2021/05/29 09:58:56;;;;;;;;;;;;;;;24.30;28.52;99176.44;5047051;28;20025;-63
2021/05/29 10:01:42;;;;;;;2.83;0.90;;;;;;;22.65;31.29;99165.50;5046977;28;20196;-63
2021/05/29 10:04:09;;;;;;;6.72;0.95;;;;;;;23.64;33.09;99158.44;5048888;28;20048;-63
2021/05/29 10:06:34;;;;;;;2.28;1.02;;;;;;;22.83;32.92;99169.75;5046272;28;20025;-63
2021/05/29 10:09:00;;;;;;;3.30;1.17;;;;;;;23.44;31.95;99175.78;5045765;28;20028;-63
2021/05/29 10:11:27;;;;;;;2.42;1.10;;;;;;;24.30;29.59;99187.22;5046432;28;20355;-63
2021/05/29 10:13:53;;;;;;;1.80;1.23;;;;;;;23.31;32.76;99166.78;5046465;28;20041;-63
2021/05/29 10:16:19;;;;;;;8.80;1.65;;;;;;;22.17;35.22;99173.69;5046197;28;20050;-63
2021/05/29 10:18:50;;;;;;;3.88;1.20;;;;;;;21.73;35.94;99178.00;5046042;28;20033;-63
2021/05/29 10:21:17;;;;;;;3.85;1.00;;;;;;;23.49;34.21;99165.63;5046055;28;20025;-63
2021/05/29 10:23:46;;;;;;;2.25;1.02;;;;;;;23.39;32.90;99174.38;5046117;28;20092;-63
2021/05/29 10:26:16;;;;;;;1.30;1.00;;;;;;;22.01;33.50;99175.50;5045790;28;20041;-63
2021/05/29 10:28:44;;;;;;;2.25;1.23;;;;;;;21.18;35.80;99186.38;5045929;28;20017;-63
2021/05/29 10:31:10;;;;;;;2.35;1.00;;;;;;;20.74;36.90;99185.09;5045812;28;20021;-63
2021/05/29 10:33:45;;;;;;;4.53;1.15;;;;;;;20.81;34.78;99170.47;5045835;28;20096;-63
2021/05/29 10:36:40;;;;;;;2.30;1.00;;;;;;;22.07;33.21;99175.16;5046033;28;20388;-63
2021/05/29 10:39:09;;;;;;;0.95;0.80;;;;;;;22.80;32.34;99175.31;5049466;28;20025;-62
2021/05/29 10:41:52;;;;;;;2.30;1.02;;;;;;;23.39;33.67;99180.63;5051990;28;20024;-63
2021/05/29 10:44:44;;;;;;;1.25;0.80;;;;;;;23.25;31.55;99173.41;5054433;28;20036;-63
2021/05/29 10:47:20;;;;;;;2.35;0.93;;;;;;;24.15;33.13;99182.84;5050555;28;20093;-63
2021/05/29 10:49:54;;;;;;;2.22;1.40;;;;;;;23.81;32.13;99167.13;5049012;28;20016;-63
2021/05/29 10:52:33;;;;;;;1.58;1.20;;;;;;;24.31;32.65;99162.03;5051918;28;20078;-63
2021/05/29 10:55:13;;;;;;;0.98;0.90;;;;;;;23.81;31.33;99167.13;5051489;28;20308;-63
2021/05/29 10:57:55;;;;;;;3.28;0.88;;;;;;;23.63;30.45;99173.69;5058021;28;20080;-63
2021/05/29 11:00:36;;;;;;;1.27;0.90;;;;;;;23.59;28.66;99161.41;5048028;28;20040;-63
2021/05/29 11:03:16;;;;;;;0.95;0.82;;;;;;;23.44;30.79;99157.00;5054733;28;20025;-63
2021/05/29 11:05:43;;;;;;;0.95;0.88;;;;;;;23.50;32.26;99171.88;5051834;28;20061;-63
2021/05/29 11:08:46;;;;;;;7.05;1.10;;;;;;;24.02;31.78;99159.53;5049511;28;20039;-63
2021/05/29 11:11:37;;;;;;;2.88;1.10;;;;;;;24.13;29.19;99157.88;5056763;28;20240;-63
2021/05/29 11:14:15;;;;;;;2.25;0.88;;;;;;;24.04;29.75;99158.47;5047760;28;20029;-63
2021/05/29 11:16:47;;;;;;;1.10;0.65;;;;;;;24.03;29.87;99172.00;5045244;28;20014;-63
2021/05/29 11:19:29;;;;;;;1.83;0.75;;;;;;;24.01;29.86;99161.34;5048125;28;20255;-63
2021/05/29 11:22:13;;;;;;;;;;;;;;;23.65;30.32;99161.00;5063008;28;20122;-63
2021/05/29 11:24:54;;;;;;;1.98;0.80;;;;;;;22.75;30.58;99155.94;5062537;28;20251;-63
2021/05/29 11:27:20;;;;;;;6.43;1.17;;;;;;;23.18;32.18;99161.28;5063960;28;20093;-63
2021/05/29 11:29:51;;;;;;;0.95;0.75;;;;;;;21.69;32.79;99152.31;5056332;28;20018;-63
2021/05/29 11:32:45;;;;;;;2.25;0.80;;;;;;;22.22;32.75;99147.47;5043801;28;20021;-63
2021/05/29 11:35:37;;;;;;;3.30;0.90;;;;;;;22.69;33.64;99153.63;5043746;28;20308;-63
2021/05/29 11:38:17;;;;;;;3.10;0.82;;;;;;;22.46;35.29;99138.00;5058016;28;20049;-63
2021/05/29 11:40:51;;;;;;;2.08;0.90;;;;;;;22.50;32.87;99161.03;5056684;28;20200;-63
2021/05/29 11:43:39;;;;;;;1.58;1.05;;;;;;;22.14;32.37;99141.69;5062762;28;20020;-62
2021/05/29 11:46:19;;;;;;;2.33;1.17;;;;;;;21.94;34.22;99160.72;5063031;28;20084;-63
2021/05/29 11:49:04;;;;;;;0.93;0.60;;;;;;;22.06;32.14;99138.59;5062901;28;20012;-63
2021/05/29 11:51:34;;;;;;;3.05;0.75;;;;;;;21.82;30.92;99150.69;5060887;28;20091;-63
2021/05/29 11:54:11;;;;;;;1.30;0.60;;;;;;;21.79;31.06;99157.09;5058897;28;20110;-63
2021/05/29 11:56:40;;;;;;;0.55;0.50;;;;;;;21.61;35.76;99146.53;5043743;28;20045;-63
2021/05/29 11:59:08;;;;;;;1.27;0.70;;;;;;;21.45;34.13;99156.34;5043554;28;20029;-63